sensor_id;sensor_type;location;lat;lon;timestamp;P1;durP1;ratioP1;P2;durP2;ratioP2
11614;SDS011;5863;52.832;4.758;2022-12-07T00:01:15;4.83;;;1.33;;
11614;SDS011;5863;52.832;4.758;2022-12-07T00:03:43;9.23;;;1.63;;
11614;SDS011;5863;52.832;4.758;2022-12-07T00:06:12;6.67;;;1.77;;
11614;SDS011;5863;52.832;4.758;2022-12-07T00:08:41;6.23;;;1.50;;
11614;SDS011;5863;52.832;4.758;2022-12-07T00:11:09;6.03;;;1.40;;
11614;SDS011;5863;52.832;4.758;2022-12-07T00:13:37;5.73;;;1.50;;
11614;SDS011;5863;52.832;4.758;2022-12-07T00:16:05;6.97;;;1.77;;
11614;SDS011;5863;52.832;4.758;2022-12-07T00:18:34;8.77;;;4.53;;
11614;SDS011;5863;52.832;4.758;2022-12-07T00:21:01;11.63;;;4.40;;
11614;SDS011;5863;52.832;4.758;2022-12-07T00:23:29;13.37;;;5.10;;
11614;SDS011;5863;52.832;4.758;2022-12-07T00:26:02;7.67;;;3.33;;
11614;SDS011;5863;52.832;4.758;2022-12-07T00:28:29;10.00;;;2.47;;
11614;SDS011;5863;52.832;4.758;2022-12-07T00:30:59;7.87;;;1.47;;
11614;SDS011;5863;52.832;4.758;2022-12-07T00:33:26;5.20;;;1.73;;
11614;SDS011;5863;52.832;4.758;2022-12-07T00:35:54;10.60;;;1.83;;
11614;SDS011;5863;52.832;4.758;2022-12-07T00:38:22;8.33;;;1.80;;
11614;SDS011;5863;52.832;4.758;2022-12-07T00:40:53;6.40;;;1.70;;
11614;SDS011;5863;52.832;4.758;2022-12-07T00:43:22;13.33;;;1.70;;
11614;SDS011;5863;52.832;4.758;2022-12-07T00:45:48;7.73;;;1.77;;
11614;SDS011;5863;52.832;4.758;2022-12-07T00:48:15;6.50;;;1.87;;
11614;SDS011;5863;52.832;4.758;2022-12-07T00:50:42;9.03;;;1.90;;
11614;SDS011;5863;52.832;4.758;2022-12-07T00:53:08;9.57;;;1.90;;
11614;SDS011;5863;52.832;4.758;2022-12-07T00:55:35;8.67;;;2.50;;
11614;SDS011;5863;52.832;4.758;2022-12-07T00:58:02;7.97;;;2.27;;
11614;SDS011;5863;52.832;4.758;2022-12-07T01:00:31;10.73;;;1.80;;
11614;SDS011;5863;52.832;4.758;2022-12-07T01:02:59;9.37;;;1.93;;
11614;SDS011;5863;52.832;4.758;2022-12-07T01:05:26;9.90;;;2.20;;
11614;SDS011;5863;52.832;4.758;2022-12-07T01:07:54;9.43;;;1.80;;
11614;SDS011;5863;52.832;4.758;2022-12-07T01:10:20;11.20;;;2.07;;
11614;SDS011;5863;52.832;4.758;2022-12-07T01:12:47;7.57;;;1.80;;
11614;SDS011;5863;52.832;4.758;2022-12-07T01:15:14;7.53;;;1.53;;
11614;SDS011;5863;52.832;4.758;2022-12-07T01:20:14;4.83;;;1.30;;
11614;SDS011;5863;52.832;4.758;2022-12-07T01:22:41;5.13;;;1.30;;
11614;SDS011;5863;52.832;4.758;2022-12-07T01:25:09;7.63;;;1.53;;
11614;SDS011;5863;52.832;4.758;2022-12-07T01:27:37;5.90;;;1.63;;
11614;SDS011;5863;52.832;4.758;2022-12-07T01:30:06;6.77;;;1.60;;
11614;SDS011;5863;52.832;4.758;2022-12-07T01:32:33;4.97;;;1.43;;
11614;SDS011;5863;52.832;4.758;2022-12-07T01:35:01;6.40;;;1.63;;
11614;SDS011;5863;52.832;4.758;2022-12-07T01:37:35;9.57;;;1.63;;
11614;SDS011;5863;52.832;4.758;2022-12-07T01:40:02;5.80;;;1.43;;
11614;SDS011;5863;52.832;4.758;2022-12-07T01:42:29;9.97;;;1.43;;
11614;SDS011;5863;52.832;4.758;2022-12-07T01:45:25;7.20;;;1.67;;
11614;SDS011;5863;52.832;4.758;2022-12-07T01:48:04;8.87;;;2.20;;
11614;SDS011;5863;52.832;4.758;2022-12-07T01:50:37;11.57;;;1.93;;
11614;SDS011;5863;52.832;4.758;2022-12-07T01:53:05;7.20;;;1.40;;
11614;SDS011;5863;52.832;4.758;2022-12-07T01:55:35;6.83;;;1.73;;
11614;SDS011;5863;52.832;4.758;2022-12-07T01:58:04;4.47;;;1.13;;
11614;SDS011;5863;52.832;4.758;2022-12-07T02:00:31;4.03;;;1.20;;
11614;SDS011;5863;52.832;4.758;2022-12-07T02:02:59;4.47;;;0.90;;
11614;SDS011;5863;52.832;4.758;2022-12-07T02:05:31;4.20;;;1.00;;
11614;SDS011;5863;52.832;4.758;2022-12-07T02:08:01;4.97;;;1.30;;
11614;SDS011;5863;52.832;4.758;2022-12-07T02:10:30;10.80;;;1.63;;
11614;SDS011;5863;52.832;4.758;2022-12-07T02:13:06;7.93;;;1.97;;
11614;SDS011;5863;52.832;4.758;2022-12-07T02:15:43;7.30;;;1.40;;
11614;SDS011;5863;52.832;4.758;2022-12-07T02:18:28;5.77;;;1.30;;
11614;SDS011;5863;52.832;4.758;2022-12-07T02:21:05;7.43;;;1.30;;
11614;SDS011;5863;52.832;4.758;2022-12-07T02:23:42;6.27;;;1.33;;
11614;SDS011;5863;52.832;4.758;2022-12-07T02:26:38;3.33;;;1.43;;
11614;SDS011;5863;52.832;4.758;2022-12-07T02:29:32;3.30;;;1.13;;
11614;SDS011;5863;52.832;4.758;2022-12-07T02:32:03;4.07;;;1.40;;
11614;SDS011;5863;52.832;4.758;2022-12-07T02:34:39;4.67;;;1.40;;
11614;SDS011;5863;52.832;4.758;2022-12-07T02:37:24;7.00;;;1.27;;
11614;SDS011;5863;52.832;4.758;2022-12-07T02:39:59;7.70;;;1.60;;
11614;SDS011;5863;52.832;4.758;2022-12-07T02:42:32;7.90;;;1.37;;
11614;SDS011;5863;52.832;4.758;2022-12-07T02:45:05;7.33;;;1.43;;
11614;SDS011;5863;52.832;4.758;2022-12-07T02:47:33;5.07;;;1.60;;
11614;SDS011;5863;52.832;4.758;2022-12-07T02:50:02;7.23;;;1.23;;
11614;SDS011;5863;52.832;4.758;2022-12-07T02:52:31;7.30;;;1.67;;
11614;SDS011;5863;52.832;4.758;2022-12-07T02:54:57;9.77;;;1.80;;
11614;SDS011;5863;52.832;4.758;2022-12-07T02:57:31;9.17;;;1.83;;
11614;SDS011;5863;52.832;4.758;2022-12-07T03:00:15;10.33;;;2.07;;
11614;SDS011;5863;52.832;4.758;2022-12-07T03:02:46;12.30;;;1.90;;
11614;SDS011;5863;52.832;4.758;2022-12-07T03:05:31;9.33;;;1.90;;
11614;SDS011;5863;52.832;4.758;2022-12-07T03:08:19;17.10;;;2.50;;
11614;SDS011;5863;52.832;4.758;2022-12-07T03:10:54;12.13;;;1.67;;
11614;SDS011;5863;52.832;4.758;2022-12-07T03:13:25;5.70;;;1.87;;
11614;SDS011;5863;52.832;4.758;2022-12-07T03:16:00;7.53;;;1.47;;
11614;SDS011;5863;52.832;4.758;2022-12-07T03:18:33;9.67;;;1.70;;
11614;SDS011;5863;52.832;4.758;2022-12-07T03:21:06;7.20;;;1.60;;
11614;SDS011;5863;52.832;4.758;2022-12-07T03:23:39;4.50;;;1.20;;
11614;SDS011;5863;52.832;4.758;2022-12-07T03:26:08;3.83;;;1.23;;
11614;SDS011;5863;52.832;4.758;2022-12-07T03:28:38;6.50;;;1.13;;
11614;SDS011;5863;52.832;4.758;2022-12-07T03:31:11;7.53;;;1.73;;
11614;SDS011;5863;52.832;4.758;2022-12-07T03:33:44;2.83;;;0.90;;
11614;SDS011;5863;52.832;4.758;2022-12-07T03:36:17;6.37;;;1.23;;
11614;SDS011;5863;52.832;4.758;2022-12-07T03:38:50;4.50;;;0.93;;
11614;SDS011;5863;52.832;4.758;2022-12-07T03:41:22;4.27;;;1.13;;
11614;SDS011;5863;52.832;4.758;2022-12-07T03:43:50;4.83;;;1.00;;
11614;SDS011;5863;52.832;4.758;2022-12-07T03:46:20;4.87;;;1.07;;
11614;SDS011;5863;52.832;4.758;2022-12-07T03:48:59;5.27;;;1.53;;
11614;SDS011;5863;52.832;4.758;2022-12-07T03:51:32;3.83;;;1.10;;
11614;SDS011;5863;52.832;4.758;2022-12-07T03:54:06;5.67;;;1.03;;
11614;SDS011;5863;52.832;4.758;2022-12-07T03:56:38;6.73;;;0.97;;
11614;SDS011;5863;52.832;4.758;2022-12-07T03:59:06;3.13;;;0.83;;
11614;SDS011;5863;52.832;4.758;2022-12-07T04:01:35;4.93;;;0.93;;
11614;SDS011;5863;52.832;4.758;2022-12-07T04:04:02;5.73;;;1.00;;
11614;SDS011;5863;52.832;4.758;2022-12-07T04:06:29;5.57;;;1.27;;
11614;SDS011;5863;52.832;4.758;2022-12-07T04:08:57;10.00;;;1.40;;
11614;SDS011;5863;52.832;4.758;2022-12-07T04:11:24;4.83;;;1.40;;
11614;SDS011;5863;52.832;4.758;2022-12-07T04:13:52;5.80;;;1.33;;
11614;SDS011;5863;52.832;4.758;2022-12-07T04:16:37;7.30;;;1.17;;
11614;SDS011;5863;52.832;4.758;2022-12-07T04:19:04;7.30;;;1.20;;
11614;SDS011;5863;52.832;4.758;2022-12-07T04:21:32;3.40;;;1.10;;
11614;SDS011;5863;52.832;4.758;2022-12-07T04:23:59;4.80;;;0.77;;
11614;SDS011;5863;52.832;4.758;2022-12-07T04:26:25;7.37;;;1.10;;
11614;SDS011;5863;52.832;4.758;2022-12-07T04:28:52;3.30;;;0.90;;
11614;SDS011;5863;52.832;4.758;2022-12-07T04:31:18;8.57;;;1.30;;
11614;SDS011;5863;52.832;4.758;2022-12-07T04:33:46;5.37;;;1.23;;
11614;SDS011;5863;52.832;4.758;2022-12-07T04:36:13;5.97;;;1.23;;
11614;SDS011;5863;52.832;4.758;2022-12-07T04:38:42;6.83;;;1.60;;
11614;SDS011;5863;52.832;4.758;2022-12-07T04:41:08;4.90;;;1.27;;
11614;SDS011;5863;52.832;4.758;2022-12-07T04:43:41;8.60;;;1.50;;
11614;SDS011;5863;52.832;4.758;2022-12-07T04:46:08;8.70;;;1.10;;
11614;SDS011;5863;52.832;4.758;2022-12-07T04:48:35;6.03;;;1.43;;
11614;SDS011;5863;52.832;4.758;2022-12-07T04:51:03;3.63;;;0.93;;
11614;SDS011;5863;52.832;4.758;2022-12-07T04:53:37;3.47;;;1.00;;
11614;SDS011;5863;52.832;4.758;2022-12-07T04:56:04;12.63;;;1.50;;
11614;SDS011;5863;52.832;4.758;2022-12-07T04:58:30;5.60;;;1.17;;
11614;SDS011;5863;52.832;4.758;2022-12-07T05:00:57;7.90;;;1.43;;
11614;SDS011;5863;52.832;4.758;2022-12-07T05:03:24;5.67;;;1.10;;
11614;SDS011;5863;52.832;4.758;2022-12-07T05:05:50;6.53;;;1.30;;
11614;SDS011;5863;52.832;4.758;2022-12-07T05:08:18;4.53;;;1.43;;
11614;SDS011;5863;52.832;4.758;2022-12-07T05:10:45;4.97;;;1.37;;
11614;SDS011;5863;52.832;4.758;2022-12-07T05:13:11;7.53;;;1.40;;
11614;SDS011;5863;52.832;4.758;2022-12-07T05:15:38;5.00;;;1.20;;
11614;SDS011;5863;52.832;4.758;2022-12-07T05:18:05;6.77;;;2.27;;
11614;SDS011;5863;52.832;4.758;2022-12-07T05:20:32;7.60;;;1.47;;
11614;SDS011;5863;52.832;4.758;2022-12-07T05:25:59;4.50;;;1.07;;
11614;SDS011;5863;52.832;4.758;2022-12-07T05:28:26;3.93;;;1.40;;
11614;SDS011;5863;52.832;4.758;2022-12-07T05:30:52;4.20;;;1.00;;
11614;SDS011;5863;52.832;4.758;2022-12-07T05:33:30;3.17;;;0.87;;
11614;SDS011;5863;52.832;4.758;2022-12-07T05:35:57;2.87;;;0.57;;
11614;SDS011;5863;52.832;4.758;2022-12-07T05:38:25;3.67;;;0.80;;
11614;SDS011;5863;52.832;4.758;2022-12-07T05:40:51;6.57;;;1.37;;
11614;SDS011;5863;52.832;4.758;2022-12-07T05:43:18;5.90;;;1.43;;
11614;SDS011;5863;52.832;4.758;2022-12-07T05:45:45;7.93;;;2.50;;
11614;SDS011;5863;52.832;4.758;2022-12-07T05:48:11;7.07;;;2.03;;
11614;SDS011;5863;52.832;4.758;2022-12-07T05:50:38;9.03;;;2.33;;
11614;SDS011;5863;52.832;4.758;2022-12-07T05:53:05;4.57;;;2.00;;
11614;SDS011;5863;52.832;4.758;2022-12-07T05:55:32;8.03;;;1.70;;
11614;SDS011;5863;52.832;4.758;2022-12-07T05:57:59;4.97;;;1.47;;
11614;SDS011;5863;52.832;4.758;2022-12-07T06:00:42;6.77;;;1.87;;
11614;SDS011;5863;52.832;4.758;2022-12-07T06:06:02;8.00;;;1.50;;
11614;SDS011;5863;52.832;4.758;2022-12-07T06:08:28;7.53;;;1.60;;
11614;SDS011;5863;52.832;4.758;2022-12-07T06:10:56;5.53;;;1.10;;
11614;SDS011;5863;52.832;4.758;2022-12-07T06:13:38;5.87;;;1.23;;
11614;SDS011;5863;52.832;4.758;2022-12-07T06:16:05;2.27;;;0.87;;
11614;SDS011;5863;52.832;4.758;2022-12-07T06:18:32;8.83;;;1.43;;
11614;SDS011;5863;52.832;4.758;2022-12-07T06:21:00;6.67;;;1.77;;
11614;SDS011;5863;52.832;4.758;2022-12-07T06:23:27;6.37;;;1.80;;
11614;SDS011;5863;52.832;4.758;2022-12-07T06:25:53;3.70;;;1.40;;
11614;SDS011;5863;52.832;4.758;2022-12-07T06:28:21;3.13;;;1.10;;
11614;SDS011;5863;52.832;4.758;2022-12-07T06:30:56;3.97;;;1.40;;
11614;SDS011;5863;52.832;4.758;2022-12-07T06:33:23;4.27;;;0.97;;
11614;SDS011;5863;52.832;4.758;2022-12-07T06:35:51;3.77;;;1.20;;
11614;SDS011;5863;52.832;4.758;2022-12-07T06:38:18;4.70;;;1.70;;
11614;SDS011;5863;52.832;4.758;2022-12-07T06:40:45;3.97;;;1.40;;
11614;SDS011;5863;52.832;4.758;2022-12-07T06:43:12;4.50;;;1.30;;
11614;SDS011;5863;52.832;4.758;2022-12-07T06:45:40;5.03;;;1.57;;
11614;SDS011;5863;52.832;4.758;2022-12-07T06:48:07;4.57;;;1.43;;
11614;SDS011;5863;52.832;4.758;2022-12-07T06:50:33;3.90;;;1.50;;
11614;SDS011;5863;52.832;4.758;2022-12-07T06:53:00;7.33;;;1.63;;
11614;SDS011;5863;52.832;4.758;2022-12-07T06:55:26;3.23;;;1.10;;
11614;SDS011;5863;52.832;4.758;2022-12-07T06:57:53;7.60;;;1.87;;
11614;SDS011;5863;52.832;4.758;2022-12-07T07:00:20;6.83;;;1.80;;
11614;SDS011;5863;52.832;4.758;2022-12-07T07:02:48;4.70;;;1.80;;
11614;SDS011;5863;52.832;4.758;2022-12-07T07:05:15;8.70;;;2.40;;
11614;SDS011;5863;52.832;4.758;2022-12-07T07:07:42;5.13;;;1.40;;
11614;SDS011;5863;52.832;4.758;2022-12-07T07:10:09;5.27;;;1.80;;
11614;SDS011;5863;52.832;4.758;2022-12-07T07:12:37;9.87;;;1.83;;
11614;SDS011;5863;52.832;4.758;2022-12-07T07:15:04;5.07;;;1.60;;
11614;SDS011;5863;52.832;4.758;2022-12-07T07:17:31;8.30;;;1.50;;
11614;SDS011;5863;52.832;4.758;2022-12-07T07:19:59;6.87;;;1.30;;
11614;SDS011;5863;52.832;4.758;2022-12-07T07:22:26;6.37;;;1.30;;
11614;SDS011;5863;52.832;4.758;2022-12-07T07:24:52;7.43;;;1.83;;
11614;SDS011;5863;52.832;4.758;2022-12-07T07:27:21;8.57;;;1.40;;
11614;SDS011;5863;52.832;4.758;2022-12-07T07:29:48;8.10;;;1.80;;
11614;SDS011;5863;52.832;4.758;2022-12-07T07:32:15;8.60;;;1.57;;
11614;SDS011;5863;52.832;4.758;2022-12-07T07:34:41;5.30;;;1.30;;
11614;SDS011;5863;52.832;4.758;2022-12-07T07:37:09;3.87;;;1.13;;
11614;SDS011;5863;52.832;4.758;2022-12-07T07:39:37;6.33;;;1.70;;
11614;SDS011;5863;52.832;4.758;2022-12-07T07:42:04;6.70;;;1.73;;
11614;SDS011;5863;52.832;4.758;2022-12-07T07:44:32;9.80;;;2.63;;
11614;SDS011;5863;52.832;4.758;2022-12-07T07:46:59;5.57;;;1.63;;
11614;SDS011;5863;52.832;4.758;2022-12-07T07:49:26;11.77;;;1.80;;
11614;SDS011;5863;52.832;4.758;2022-12-07T07:51:52;7.50;;;1.67;;
11614;SDS011;5863;52.832;4.758;2022-12-07T07:54:20;7.07;;;1.23;;
11614;SDS011;5863;52.832;4.758;2022-12-07T07:56:47;4.63;;;1.57;;
11614;SDS011;5863;52.832;4.758;2022-12-07T07:59:14;5.90;;;1.37;;
11614;SDS011;5863;52.832;4.758;2022-12-07T08:01:41;7.30;;;1.77;;
11614;SDS011;5863;52.832;4.758;2022-12-07T08:04:08;7.00;;;1.27;;
11614;SDS011;5863;52.832;4.758;2022-12-07T08:06:35;9.33;;;2.17;;
11614;SDS011;5863;52.832;4.758;2022-12-07T08:09:02;14.17;;;3.50;;
11614;SDS011;5863;52.832;4.758;2022-12-07T08:11:33;14.13;;;2.77;;
11614;SDS011;5863;52.832;4.758;2022-12-07T08:16:45;7.73;;;1.80;;
11614;SDS011;5863;52.832;4.758;2022-12-07T08:19:11;11.40;;;2.07;;
11614;SDS011;5863;52.832;4.758;2022-12-07T08:21:51;5.20;;;1.27;;
11614;SDS011;5863;52.832;4.758;2022-12-07T08:24:20;8.50;;;1.30;;
11614;SDS011;5863;52.832;4.758;2022-12-07T08:26:50;5.63;;;1.17;;
11614;SDS011;5863;52.832;4.758;2022-12-07T08:29:17;7.93;;;1.20;;
11614;SDS011;5863;52.832;4.758;2022-12-07T08:31:45;4.40;;;1.27;;
11614;SDS011;5863;52.832;4.758;2022-12-07T08:34:22;5.40;;;1.07;;
11614;SDS011;5863;52.832;4.758;2022-12-07T08:36:51;5.40;;;1.10;;
11614;SDS011;5863;52.832;4.758;2022-12-07T08:39:18;4.13;;;1.10;;
11614;SDS011;5863;52.832;4.758;2022-12-07T08:41:44;1.97;;;0.90;;
11614;SDS011;5863;52.832;4.758;2022-12-07T08:44:21;4.87;;;1.10;;
11614;SDS011;5863;52.832;4.758;2022-12-07T08:46:55;3.90;;;1.07;;
11614;SDS011;5863;52.832;4.758;2022-12-07T08:49:27;5.87;;;1.40;;
11614;SDS011;5863;52.832;4.758;2022-12-07T08:52:00;5.10;;;1.10;;
11614;SDS011;5863;52.832;4.758;2022-12-07T08:54:30;2.47;;;1.10;;
11614;SDS011;5863;52.832;4.758;2022-12-07T08:56:57;6.27;;;1.47;;
11614;SDS011;5863;52.832;4.758;2022-12-07T08:59:25;5.37;;;1.30;;
11614;SDS011;5863;52.832;4.758;2022-12-07T09:01:53;7.17;;;1.70;;
11614;SDS011;5863;52.832;4.758;2022-12-07T09:04:22;6.93;;;1.67;;
11614;SDS011;5863;52.832;4.758;2022-12-07T09:06:49;11.00;;;1.90;;
11614;SDS011;5863;52.832;4.758;2022-12-07T09:09:15;9.93;;;1.83;;
11614;SDS011;5863;52.832;4.758;2022-12-07T09:11:42;7.47;;;1.90;;
11614;SDS011;5863;52.832;4.758;2022-12-07T09:14:10;6.07;;;1.50;;
11614;SDS011;5863;52.832;4.758;2022-12-07T09:16:38;4.10;;;1.40;;
11614;SDS011;5863;52.832;4.758;2022-12-07T09:19:05;8.87;;;1.40;;
11614;SDS011;5863;52.832;4.758;2022-12-07T09:21:32;5.60;;;1.63;;
11614;SDS011;5863;52.832;4.758;2022-12-07T09:23:58;10.73;;;1.97;;
11614;SDS011;5863;52.832;4.758;2022-12-07T09:26:25;8.87;;;1.67;;
11614;SDS011;5863;52.832;4.758;2022-12-07T09:28:53;7.57;;;1.50;;
11614;SDS011;5863;52.832;4.758;2022-12-07T09:31:19;6.50;;;1.20;;
11614;SDS011;5863;52.832;4.758;2022-12-07T09:33:57;6.67;;;1.60;;
11614;SDS011;5863;52.832;4.758;2022-12-07T09:36:25;8.13;;;1.30;;
11614;SDS011;5863;52.832;4.758;2022-12-07T09:38:52;4.43;;;1.30;;
11614;SDS011;5863;52.832;4.758;2022-12-07T09:41:19;5.50;;;1.40;;
11614;SDS011;5863;52.832;4.758;2022-12-07T09:43:47;4.13;;;1.50;;
11614;SDS011;5863;52.832;4.758;2022-12-07T09:46:15;9.20;;;1.80;;
11614;SDS011;5863;52.832;4.758;2022-12-07T09:48:43;6.00;;;1.57;;
11614;SDS011;5863;52.832;4.758;2022-12-07T09:51:14;5.27;;;1.37;;
11614;SDS011;5863;52.832;4.758;2022-12-07T09:53:47;7.23;;;1.60;;
11614;SDS011;5863;52.832;4.758;2022-12-07T09:56:16;8.80;;;1.60;;
11614;SDS011;5863;52.832;4.758;2022-12-07T09:58:44;7.97;;;1.70;;
11614;SDS011;5863;52.832;4.758;2022-12-07T10:01:13;8.93;;;1.50;;
11614;SDS011;5863;52.832;4.758;2022-12-07T10:03:42;9.27;;;1.67;;
11614;SDS011;5863;52.832;4.758;2022-12-07T10:06:15;5.47;;;1.50;;
11614;SDS011;5863;52.832;4.758;2022-12-07T10:08:42;5.93;;;1.37;;
11614;SDS011;5863;52.832;4.758;2022-12-07T10:11:09;9.37;;;1.47;;
11614;SDS011;5863;52.832;4.758;2022-12-07T10:13:37;4.10;;;1.30;;
11614;SDS011;5863;52.832;4.758;2022-12-07T10:16:05;9.47;;;2.13;;
11614;SDS011;5863;52.832;4.758;2022-12-07T10:18:40;5.67;;;1.40;;
11614;SDS011;5863;52.832;4.758;2022-12-07T10:21:10;8.20;;;1.63;;
11614;SDS011;5863;52.832;4.758;2022-12-07T10:23:59;10.63;;;1.70;;
11614;SDS011;5863;52.832;4.758;2022-12-07T10:26:30;6.93;;;1.63;;
11614;SDS011;5863;52.832;4.758;2022-12-07T10:28:59;7.23;;;1.70;;
11614;SDS011;5863;52.832;4.758;2022-12-07T10:31:28;7.03;;;1.20;;
11614;SDS011;5863;52.832;4.758;2022-12-07T10:33:56;7.30;;;1.33;;
11614;SDS011;5863;52.832;4.758;2022-12-07T10:36:27;3.33;;;1.30;;
11614;SDS011;5863;52.832;4.758;2022-12-07T10:39:03;8.30;;;1.53;;
11614;SDS011;5863;52.832;4.758;2022-12-07T10:41:38;4.50;;;1.13;;
11614;SDS011;5863;52.832;4.758;2022-12-07T10:44:20;6.23;;;1.30;;
11614;SDS011;5863;52.832;4.758;2022-12-07T10:47:00;4.87;;;1.20;;
11614;SDS011;5863;52.832;4.758;2022-12-07T10:49:50;5.80;;;1.17;;
11614;SDS011;5863;52.832;4.758;2022-12-07T10:52:32;5.33;;;1.53;;
11614;SDS011;5863;52.832;4.758;2022-12-07T10:55:15;5.15;;;1.00;;
11614;SDS011;5863;52.832;4.758;2022-12-07T10:57:51;3.67;;;0.80;;
11614;SDS011;5863;52.832;4.758;2022-12-07T11:00:30;5.57;;;1.13;;
11614;SDS011;5863;52.832;4.758;2022-12-07T11:03:11;5.13;;;1.73;;
11614;SDS011;5863;52.832;4.758;2022-12-07T11:05:52;7.72;;;1.27;;
11614;SDS011;5863;52.832;4.758;2022-12-07T11:08:33;6.70;;;1.40;;
11614;SDS011;5863;52.832;4.758;2022-12-07T11:11:12;9.18;;;1.60;;
11614;SDS011;5863;52.832;4.758;2022-12-07T11:13:44;5.75;;;1.05;;
11614;SDS011;5863;52.832;4.758;2022-12-07T11:16:19;4.00;;;1.15;;
11614;SDS011;5863;52.832;4.758;2022-12-07T11:19:05;6.82;;;1.25;;
11614;SDS011;5863;52.832;4.758;2022-12-07T11:21:44;4.75;;;1.48;;
11614;SDS011;5863;52.832;4.758;2022-12-07T11:24:17;7.72;;;1.48;;
11614;SDS011;5863;52.832;4.758;2022-12-07T11:26:59;4.18;;;1.08;;
11614;SDS011;5863;52.832;4.758;2022-12-07T11:29:47;4.57;;;1.35;;
11614;SDS011;5863;52.832;4.758;2022-12-07T11:32:22;3.88;;;1.15;;
11614;SDS011;5863;52.832;4.758;2022-12-07T11:35:03;8.30;;;1.30;;
11614;SDS011;5863;52.832;4.758;2022-12-07T11:37:34;5.60;;;1.30;;
11614;SDS011;5863;52.832;4.758;2022-12-07T11:40:05;5.90;;;1.27;;
11614;SDS011;5863;52.832;4.758;2022-12-07T11:42:43;7.30;;;1.47;;
11614;SDS011;5863;52.832;4.758;2022-12-07T11:45:19;5.43;;;1.27;;
11614;SDS011;5863;52.832;4.758;2022-12-07T11:47:50;7.70;;;1.27;;
11614;SDS011;5863;52.832;4.758;2022-12-07T11:50:27;9.60;;;1.67;;
11614;SDS011;5863;52.832;4.758;2022-12-07T11:53:00;5.43;;;1.40;;
11614;SDS011;5863;52.832;4.758;2022-12-07T11:55:39;4.23;;;1.23;;
11614;SDS011;5863;52.832;4.758;2022-12-07T11:58:14;3.97;;;1.33;;
11614;SDS011;5863;52.832;4.758;2022-12-07T12:00:48;8.53;;;1.70;;
11614;SDS011;5863;52.832;4.758;2022-12-07T12:03:20;3.40;;;1.47;;
11614;SDS011;5863;52.832;4.758;2022-12-07T12:05:55;6.07;;;1.57;;
11614;SDS011;5863;52.832;4.758;2022-12-07T12:08:23;3.38;;;1.33;;
11614;SDS011;5863;52.832;4.758;2022-12-07T12:10:58;3.57;;;0.90;;
11614;SDS011;5863;52.832;4.758;2022-12-07T12:13:50;5.00;;;1.73;;
11614;SDS011;5863;52.832;4.758;2022-12-07T12:16:56;5.10;;;1.10;;
11614;SDS011;5863;52.832;4.758;2022-12-07T12:19:34;4.53;;;1.07;;
11614;SDS011;5863;52.832;4.758;2022-12-07T12:22:06;5.53;;;1.13;;
11614;SDS011;5863;52.832;4.758;2022-12-07T12:24:39;6.10;;;1.30;;
11614;SDS011;5863;52.832;4.758;2022-12-07T12:27:14;4.75;;;1.48;;
11614;SDS011;5863;52.832;4.758;2022-12-07T12:29:50;4.93;;;1.23;;
11614;SDS011;5863;52.832;4.758;2022-12-07T12:32:19;7.25;;;1.80;;
11614;SDS011;5863;52.832;4.758;2022-12-07T12:34:59;6.00;;;1.90;;
11614;SDS011;5863;52.832;4.758;2022-12-07T12:37:42;8.07;;;1.92;;
11614;SDS011;5863;52.832;4.758;2022-12-07T12:49:19;4.53;;;1.30;;
11614;SDS011;5863;52.832;4.758;2022-12-07T12:58:30;2.80;;;0.97;;
11614;SDS011;5863;52.832;4.758;2022-12-07T13:04:24;7.30;;;1.27;;
11614;SDS011;5863;52.832;4.758;2022-12-07T13:06:54;2.87;;;1.20;;
11614;SDS011;5863;52.832;4.758;2022-12-07T13:09:22;4.77;;;1.27;;
11614;SDS011;5863;52.832;4.758;2022-12-07T13:11:55;4.60;;;1.20;;
11614;SDS011;5863;52.832;4.758;2022-12-07T13:14:35;3.53;;;1.33;;
11614;SDS011;5863;52.832;4.758;2022-12-07T13:17:44;5.27;;;1.10;;
11614;SDS011;5863;52.832;4.758;2022-12-07T13:23:32;4.20;;;1.10;;
11614;SDS011;5863;52.832;4.758;2022-12-07T13:28:49;7.07;;;1.10;;
11614;SDS011;5863;52.832;4.758;2022-12-07T13:31:30;6.53;;;1.37;;
11614;SDS011;5863;52.832;4.758;2022-12-07T13:34:00;5.20;;;1.50;;
11614;SDS011;5863;52.832;4.758;2022-12-07T13:36:30;6.77;;;1.67;;
11614;SDS011;5863;52.832;4.758;2022-12-07T13:39:10;7.23;;;2.10;;
11614;SDS011;5863;52.832;4.758;2022-12-07T13:41:44;8.33;;;2.07;;
11614;SDS011;5863;52.832;4.758;2022-12-07T13:44:15;7.03;;;1.90;;
11614;SDS011;5863;52.832;4.758;2022-12-07T13:46:44;6.40;;;2.13;;
11614;SDS011;5863;52.832;4.758;2022-12-07T13:49:21;7.60;;;2.80;;
11614;SDS011;5863;52.832;4.758;2022-12-07T13:51:50;9.77;;;2.57;;
11614;SDS011;5863;52.832;4.758;2022-12-07T13:54:18;8.13;;;2.30;;
11614;SDS011;5863;52.832;4.758;2022-12-07T13:56:47;7.13;;;2.20;;
11614;SDS011;5863;52.832;4.758;2022-12-07T13:59:17;6.70;;;1.73;;
11614;SDS011;5863;52.832;4.758;2022-12-07T14:01:46;3.10;;;2.00;;
11614;SDS011;5863;52.832;4.758;2022-12-07T14:07:01;7.13;;;1.33;;
11614;SDS011;5863;52.832;4.758;2022-12-07T14:09:57;4.03;;;1.43;;
11614;SDS011;5863;52.832;4.758;2022-12-07T14:12:25;6.87;;;1.10;;
11614;SDS011;5863;52.832;4.758;2022-12-07T14:14:54;5.80;;;1.37;;
11614;SDS011;5863;52.832;4.758;2022-12-07T14:17:23;11.23;;;2.00;;
11614;SDS011;5863;52.832;4.758;2022-12-07T14:19:53;7.43;;;2.03;;
11614;SDS011;5863;52.832;4.758;2022-12-07T14:22:22;7.77;;;1.90;;
11614;SDS011;5863;52.832;4.758;2022-12-07T14:24:57;7.37;;;1.60;;
11614;SDS011;5863;52.832;4.758;2022-12-07T14:27:29;9.00;;;1.60;;
11614;SDS011;5863;52.832;4.758;2022-12-07T14:29:59;6.43;;;1.77;;
11614;SDS011;5863;52.832;4.758;2022-12-07T14:32:26;3.87;;;1.70;;
11614;SDS011;5863;52.832;4.758;2022-12-07T14:35:00;5.37;;;1.33;;
11614;SDS011;5863;52.832;4.758;2022-12-07T14:37:28;2.37;;;1.20;;
11614;SDS011;5863;52.832;4.758;2022-12-07T14:39:56;5.47;;;1.40;;
11614;SDS011;5863;52.832;4.758;2022-12-07T14:42:24;7.70;;;1.30;;
11614;SDS011;5863;52.832;4.758;2022-12-07T14:44:53;8.97;;;1.47;;
11614;SDS011;5863;52.832;4.758;2022-12-07T14:47:20;4.77;;;1.47;;
11614;SDS011;5863;52.832;4.758;2022-12-07T14:49:47;7.00;;;1.60;;
11614;SDS011;5863;52.832;4.758;2022-12-07T14:52:16;4.73;;;1.40;;
11614;SDS011;5863;52.832;4.758;2022-12-07T14:54:45;2.97;;;1.30;;
11614;SDS011;5863;52.832;4.758;2022-12-07T14:57:12;5.33;;;1.20;;
11614;SDS011;5863;52.832;4.758;2022-12-07T14:59:39;5.50;;;1.40;;
11614;SDS011;5863;52.832;4.758;2022-12-07T15:02:06;3.63;;;0.83;;
11614;SDS011;5863;52.832;4.758;2022-12-07T15:04:35;5.53;;;1.10;;
11614;SDS011;5863;52.832;4.758;2022-12-07T15:07:03;3.83;;;0.90;;
11614;SDS011;5863;52.832;4.758;2022-12-07T15:09:32;4.57;;;1.20;;
11614;SDS011;5863;52.832;4.758;2022-12-07T15:11:58;9.10;;;1.63;;
11614;SDS011;5863;52.832;4.758;2022-12-07T15:14:25;6.77;;;1.10;;
11614;SDS011;5863;52.832;4.758;2022-12-07T15:16:52;10.60;;;1.30;;
11614;SDS011;5863;52.832;4.758;2022-12-07T15:19:19;10.67;;;1.80;;
11614;SDS011;5863;52.832;4.758;2022-12-07T15:21:50;12.77;;;1.60;;
11614;SDS011;5863;52.832;4.758;2022-12-07T15:24:17;9.83;;;1.80;;
11614;SDS011;5863;52.832;4.758;2022-12-07T15:26:45;6.93;;;1.43;;
11614;SDS011;5863;52.832;4.758;2022-12-07T15:29:12;6.63;;;1.50;;
11614;SDS011;5863;52.832;4.758;2022-12-07T15:31:40;5.03;;;1.37;;
11614;SDS011;5863;52.832;4.758;2022-12-07T15:34:07;9.13;;;1.70;;
11614;SDS011;5863;52.832;4.758;2022-12-07T15:36:34;2.90;;;1.27;;
11614;SDS011;5863;52.832;4.758;2022-12-07T15:39:01;5.03;;;1.77;;
11614;SDS011;5863;52.832;4.758;2022-12-07T15:41:29;3.63;;;1.60;;
11614;SDS011;5863;52.832;4.758;2022-12-07T15:43:57;11.03;;;1.63;;
11614;SDS011;5863;52.832;4.758;2022-12-07T15:46:41;5.37;;;1.47;;
11614;SDS011;5863;52.832;4.758;2022-12-07T15:49:10;6.10;;;1.23;;
11614;SDS011;5863;52.832;4.758;2022-12-07T15:51:39;5.43;;;1.40;;
11614;SDS011;5863;52.832;4.758;2022-12-07T15:54:06;5.13;;;1.40;;
11614;SDS011;5863;52.832;4.758;2022-12-07T15:56:33;6.10;;;1.70;;
11614;SDS011;5863;52.832;4.758;2022-12-07T15:59:01;10.00;;;2.40;;
11614;SDS011;5863;52.832;4.758;2022-12-07T16:01:28;5.30;;;2.33;;